sensor_id;sensor_type;location;lat;lon;timestamp;pressure;altitude;pressure_sealevel;temperature;humidity
77153;BME280;66124;51.146;17.072;2023-06-22T00:01:37;100376.63;;;23.69;64.33
77153;BME280;66124;51.146;17.072;2023-06-22T00:04:07;100375.96;;;23.65;64.48
77153;BME280;66124;51.146;17.072;2023-06-22T00:06:36;100375.79;;;23.63;64.57
77153;BME280;66124;51.146;17.072;2023-06-22T00:09:05;100375.34;;;23.60;64.71
77153;BME280;66124;51.146;17.072;2023-06-22T00:11:35;100378.89;;;23.58;64.72
77153;BME280;66124;51.146;17.072;2023-06-22T00:14:06;100379.73;;;23.54;65.01
77153;BME280;66124;51.146;17.072;2023-06-22T00:16:36;100383.63;;;23.51;64.99
77153;BME280;66124;51.146;17.072;2023-06-22T00:19:05;100383.23;;;23.48;65.12
77153;BME280;66124;51.146;17.072;2023-06-22T00:21:35;100384.95;;;23.45;65.21
77153;BME280;66124;51.146;17.072;2023-06-22T00:24:05;100384.61;;;23.43;65.48
77153;BME280;66124;51.146;17.072;2023-06-22T00:26:34;100383.94;;;23.40;65.45
77153;BME280;66124;51.146;17.072;2023-06-22T00:29:04;100392.05;;;23.38;65.58
77153;BME280;66124;51.146;17.072;2023-06-22T00:31:33;100399.97;;;23.33;65.74
77153;BME280;66124;51.146;17.072;2023-06-22T00:34:03;100401.86;;;23.28;65.92
77153;BME280;66124;51.146;17.072;2023-06-22T00:36:32;100401.60;;;23.22;65.98
77153;BME280;66124;51.146;17.072;2023-06-22T00:39:02;100410.09;;;23.21;66.15
77153;BME280;66124;51.146;17.072;2023-06-22T00:41:31;100414.38;;;23.19;66.22
77153;BME280;66124;51.146;17.072;2023-06-22T00:44:01;100398.58;;;23.07;66.28
77153;BME280;66124;51.146;17.072;2023-06-22T00:46:30;100416.06;;;23.15;66.41
77153;BME280;66124;51.146;17.072;2023-06-22T00:49:00;100417.95;;;23.14;66.55
77153;BME280;66124;51.146;17.072;2023-06-22T00:51:30;100421.65;;;23.13;66.53
77153;BME280;66124;51.146;17.072;2023-06-22T00:54:00;100426.80;;;23.11;66.75
77153;BME280;66124;51.146;17.072;2023-06-22T00:56:29;100430.12;;;23.09;66.80
77153;BME280;66124;51.146;17.072;2023-06-22T00:58:59;100431.98;;;23.06;66.87
77153;BME280;66124;51.146;17.072;2023-06-22T01:01:29;100435.97;;;23.02;67.10
77153;BME280;66124;51.146;17.072;2023-06-22T01:03:59;100434.46;;;22.96;67.10
77153;BME280;66124;51.146;17.072;2023-06-22T01:06:32;100434.90;;;22.90;67.31
77153;BME280;66124;51.146;17.072;2023-06-22T01:09:08;100433.52;;;22.83;67.41
77153;BME280;66124;51.146;17.072;2023-06-22T01:11:39;100428.48;;;22.77;67.64
77153;BME280;66124;51.146;17.072;2023-06-22T01:14:10;100425.14;;;22.71;67.80
77153;BME280;66124;51.146;17.072;2023-06-22T01:22:08;100436.05;;;22.54;68.36
77153;BME280;66124;51.146;17.072;2023-06-22T01:24:41;100433.86;;;22.44;68.55
77153;BME280;66124;51.146;17.072;2023-06-22T01:27:21;100441.21;;;22.35;68.68
77153;BME280;66124;51.146;17.072;2023-06-22T01:29:55;100440.42;;;22.28;68.97
77153;BME280;66124;51.146;17.072;2023-06-22T01:32:24;100439.80;;;22.20;69.06
77153;BME280;66124;51.146;17.072;2023-06-22T01:34:54;100444.23;;;22.13;69.27
77153;BME280;66124;51.146;17.072;2023-06-22T01:37:24;100446.35;;;22.07;69.37
77153;BME280;66124;51.146;17.072;2023-06-22T01:39:54;100439.78;;;22.02;69.57
77153;BME280;66124;51.146;17.072;2023-06-22T01:42:25;100437.15;;;21.99;69.65
77153;BME280;66124;51.146;17.072;2023-06-22T01:44:55;100440.34;;;21.95;69.79
77153;BME280;66124;51.146;17.072;2023-06-22T01:47:26;100441.74;;;21.92;69.99
77153;BME280;66124;51.146;17.072;2023-06-22T01:49:56;100445.20;;;21.90;69.87
77153;BME280;66124;51.146;17.072;2023-06-22T01:52:26;100443.95;;;21.87;70.03
77153;BME280;66124;51.146;17.072;2023-06-22T01:54:55;100446.11;;;21.83;70.09
77153;BME280;66124;51.146;17.072;2023-06-22T01:57:25;100447.73;;;21.81;70.28
77153;BME280;66124;51.146;17.072;2023-06-22T01:59:59;100446.07;;;21.78;70.22
77153;BME280;66124;51.146;17.072;2023-06-22T02:02:33;100449.74;;;21.75;70.40
77153;BME280;66124;51.146;17.072;2023-06-22T02:05:08;100449.42;;;21.73;70.47
77153;BME280;66124;51.146;17.072;2023-06-22T02:07:41;100449.13;;;21.70;70.63
77153;BME280;66124;51.146;17.072;2023-06-22T02:10:15;100445.79;;;21.69;70.59
77153;BME280;66124;51.146;17.072;2023-06-22T02:12:47;100451.36;;;21.69;70.62
77153;BME280;66124;51.146;17.072;2023-06-22T02:15:18;100452.77;;;21.69;70.53
77153;BME280;66124;51.146;17.072;2023-06-22T02:17:48;100445.31;;;21.69;70.54
77153;BME280;66124;51.146;17.072;2023-06-22T02:20:18;100446.34;;;21.71;70.48
77153;BME280;66124;51.146;17.072;2023-06-22T02:22:47;100444.20;;;21.72;70.52
77153;BME280;66124;51.146;17.072;2023-06-22T02:25:17;100445.45;;;21.72;70.43
77153;BME280;66124;51.146;17.072;2023-06-22T02:27:47;100449.00;;;21.72;70.49
77153;BME280;66124;51.146;17.072;2023-06-22T02:30:16;100450.16;;;21.72;70.55
77153;BME280;66124;51.146;17.072;2023-06-22T02:32:46;100449.18;;;21.70;70.70
77153;BME280;66124;51.146;17.072;2023-06-22T02:35:14;100452.42;;;21.68;70.82
77153;BME280;66124;51.146;17.072;2023-06-22T02:44:00;100455.48;;;21.54;71.20
77153;BME280;66124;51.146;17.072;2023-06-22T02:46:29;100456.08;;;21.47;71.37
77153;BME280;66124;51.146;17.072;2023-06-22T02:48:59;100453.63;;;21.41;71.45
77153;BME280;66124;51.146;17.072;2023-06-22T02:51:28;100450.69;;;21.35;71.60
77153;BME280;66124;51.146;17.072;2023-06-22T02:53:58;100445.39;;;21.29;71.75
77153;BME280;66124;51.146;17.072;2023-06-22T02:56:29;100446.41;;;21.23;71.81
77153;BME280;66124;51.146;17.072;2023-06-22T02:58:59;100445.98;;;21.21;71.82
77153;BME280;66124;51.146;17.072;2023-06-22T03:01:29;100450.21;;;21.19;71.89
77153;BME280;66124;51.146;17.072;2023-06-22T03:03:58;100447.04;;;21.17;71.95
77153;BME280;66124;51.146;17.072;2023-06-22T03:06:28;100442.30;;;21.12;72.15
77153;BME280;66124;51.146;17.072;2023-06-22T03:09:02;100445.39;;;21.05;72.23
77153;BME280;66124;51.146;17.072;2023-06-22T03:11:31;100446.04;;;20.97;72.60
77153;BME280;66124;51.146;17.072;2023-06-22T03:14:01;100455.55;;;20.92;72.71
77153;BME280;66124;51.146;17.072;2023-06-22T03:16:31;100461.84;;;20.90;72.96
77153;BME280;66124;51.146;17.072;2023-06-22T03:19:00;100465.33;;;20.87;73.17
77153;BME280;66124;51.146;17.072;2023-06-22T03:21:30;100470.02;;;20.85;73.18
77153;BME280;66124;51.146;17.072;2023-06-22T03:23:59;100470.77;;;20.86;73.27
77153;BME280;66124;51.146;17.072;2023-06-22T03:26:28;100477.48;;;20.87;73.32
77153;BME280;66124;51.146;17.072;2023-06-22T03:28:58;100479.02;;;20.86;73.34
77153;BME280;66124;51.146;17.072;2023-06-22T03:31:27;100481.08;;;20.87;73.48
77153;BME280;66124;51.146;17.072;2023-06-22T03:33:57;100479.25;;;20.89;73.53
77153;BME280;66124;51.146;17.072;2023-06-22T03:36:26;100483.13;;;20.92;73.59
77153;BME280;66124;51.146;17.072;2023-06-22T03:38:56;100493.11;;;20.97;73.52
77153;BME280;66124;51.146;17.072;2023-06-22T03:41:25;100499.09;;;21.01;73.51
77153;BME280;66124;51.146;17.072;2023-06-22T03:43:55;100503.61;;;21.04;73.41
77153;BME280;66124;51.146;17.072;2023-06-22T03:46:24;100503.34;;;21.07;73.47
77153;BME280;66124;51.146;17.072;2023-06-22T03:48:54;100504.42;;;21.10;73.39
77153;BME280;66124;51.146;17.072;2023-06-22T03:51:23;100502.14;;;21.13;73.36
77153;BME280;66124;51.146;17.072;2023-06-22T03:53:51;100506.03;;;21.16;73.48
77153;BME280;66124;51.146;17.072;2023-06-22T03:56:18;100498.13;;;21.15;73.36
77153;BME280;66124;51.146;17.072;2023-06-22T04:06:21;100512.09;;;21.44;72.99
77153;BME280;66124;51.146;17.072;2023-06-22T04:08:50;100517.31;;;21.50;73.00
77153;BME280;66124;51.146;17.072;2023-06-22T04:11:20;100518.54;;;21.56;72.85
77153;BME280;66124;51.146;17.072;2023-06-22T04:13:49;100520.86;;;21.64;72.87
77153;BME280;66124;51.146;17.072;2023-06-22T04:16:18;100520.56;;;21.72;72.78
77153;BME280;66124;51.146;17.072;2023-06-22T04:18:49;100522.30;;;21.80;72.63
77153;BME280;66124;51.146;17.072;2023-06-22T04:21:19;100529.91;;;21.88;72.48
77153;BME280;66124;51.146;17.072;2023-06-22T04:23:48;100532.66;;;21.95;72.29
77153;BME280;66124;51.146;17.072;2023-06-22T04:26:17;100533.63;;;22.02;72.19
77153;BME280;66124;51.146;17.072;2023-06-22T04:28:47;100533.88;;;22.09;71.89
77153;BME280;66124;51.146;17.072;2023-06-22T04:31:16;100535.11;;;22.16;71.92
77153;BME280;66124;51.146;17.072;2023-06-22T04:33:46;100533.20;;;22.22;71.80
77153;BME280;66124;51.146;17.072;2023-06-22T04:36:15;100535.45;;;22.28;71.44
77153;BME280;66124;51.146;17.072;2023-06-22T04:38:45;100534.86;;;22.34;71.51
77153;BME280;66124;51.146;17.072;2023-06-22T04:41:14;100534.05;;;22.37;71.43
77153;BME280;66124;51.146;17.072;2023-06-22T04:43:44;100538.80;;;22.42;71.39
77153;BME280;66124;51.146;17.072;2023-06-22T04:46:13;100541.60;;;22.47;71.13
77153;BME280;66124;51.146;17.072;2023-06-22T04:48:43;100524.30;;;22.43;71.18
77153;BME280;66124;51.146;17.072;2023-06-22T04:51:12;100539.58;;;22.56;71.09
77153;BME280;66124;51.146;17.072;2023-06-22T04:53:42;100541.41;;;22.63;71.07
77153;BME280;66124;51.146;17.072;2023-06-22T04:56:11;100542.92;;;22.68;70.95
77153;BME280;66124;51.146;17.072;2023-06-22T04:58:40;100547.86;;;22.71;70.99
77153;BME280;66124;51.146;17.072;2023-06-22T05:01:10;100550.64;;;22.78;70.87
77153;BME280;66124;51.146;17.072;2023-06-22T05:03:39;100553.71;;;22.86;70.63
77153;BME280;66124;51.146;17.072;2023-06-22T05:06:09;100559.08;;;22.93;70.58
77153;BME280;66124;51.146;17.072;2023-06-22T05:08:39;100556.48;;;22.98;70.62
77153;BME280;66124;51.146;17.072;2023-06-22T05:11:08;100555.79;;;23.02;70.48
77153;BME280;66124;51.146;17.072;2023-06-22T05:13:37;100551.00;;;23.07;70.40
77153;BME280;66124;51.146;17.072;2023-06-22T05:16:05;100548.27;;;23.14;70.41
77153;BME280;66124;51.146;17.072;2023-06-22T05:18:33;100547.09;;;23.24;70.36
77153;BME280;66124;51.146;17.072;2023-06-22T05:24:08;100551.58;;;23.51;69.89
77153;BME280;66124;51.146;17.072;2023-06-22T05:26:37;100547.48;;;23.58;69.61
77153;BME280;66124;51.146;17.072;2023-06-22T05:29:06;100545.90;;;23.61;69.36
77153;BME280;66124;51.146;17.072;2023-06-22T05:31:36;100547.16;;;23.65;69.16
77153;BME280;66124;51.146;17.072;2023-06-22T05:34:05;100546.23;;;23.69;68.66
77153;BME280;66124;51.146;17.072;2023-06-22T05:36:35;100545.40;;;23.72;68.29
77153;BME280;66124;51.146;17.072;2023-06-22T05:39:13;100544.04;;;23.78;68.06
77153;BME280;66124;51.146;17.072;2023-06-22T05:41:44;100538.48;;;23.84;67.27
77153;BME280;66124;51.146;17.072;2023-06-22T05:44:14;100540.75;;;23.91;66.78
77153;BME280;66124;51.146;17.072;2023-06-22T05:46:44;100541.79;;;23.97;66.04
77153;BME280;66124;51.146;17.072;2023-06-22T05:49:14;100545.48;;;24.05;65.19
77153;BME280;66124;51.146;17.072;2023-06-22T05:51:44;100546.98;;;24.09;64.68
77153;BME280;66124;51.146;17.072;2023-06-22T05:54:13;100545.37;;;24.10;64.29
77153;BME280;66124;51.146;17.072;2023-06-22T05:56:42;100547.89;;;24.10;63.90
77153;BME280;66124;51.146;17.072;2023-06-22T05:59:12;100552.33;;;24.11;63.58
77153;BME280;66124;51.146;17.072;2023-06-22T06:01:41;100550.56;;;24.13;63.39
77153;BME280;66124;51.146;17.072;2023-06-22T06:04:11;100550.45;;;24.14;63.11
77153;BME280;66124;51.146;17.072;2023-06-22T06:06:40;100550.44;;;24.19;63.09
77153;BME280;66124;51.146;17.072;2023-06-22T06:09:10;100552.77;;;24.24;63.19
77153;BME280;66124;51.146;17.072;2023-06-22T06:11:39;100549.38;;;24.31;62.80
77153;BME280;66124;51.146;17.072;2023-06-22T06:14:09;100554.13;;;24.33;62.62
77153;BME280;66124;51.146;17.072;2023-06-22T06:16:38;100554.27;;;24.41;62.62
77153;BME280;66124;51.146;17.072;2023-06-22T06:19:08;100556.28;;;24.52;62.50
77153;BME280;66124;51.146;17.072;2023-06-22T06:21:37;100568.27;;;24.66;62.23
77153;BME280;66124;51.146;17.072;2023-06-22T06:24:07;100570.47;;;24.85;62.09
77153;BME280;66124;51.146;17.072;2023-06-22T06:26:37;100574.90;;;25.03;61.82
77153;BME280;66124;51.146;17.072;2023-06-22T06:29:06;100574.57;;;25.18;61.44
77153;BME280;66124;51.146;17.072;2023-06-22T06:31:36;100581.11;;;25.30;61.00
77153;BME280;66124;51.146;17.072;2023-06-22T06:34:03;100583.02;;;25.39;60.59
77153;BME280;66124;51.146;17.072;2023-06-22T06:36:31;100580.21;;;25.46;60.33
77153;BME280;66124;51.146;17.072;2023-06-22T06:44:06;100578.55;;;25.75;59.84
77153;BME280;66124;51.146;17.072;2023-06-22T06:46:35;100575.62;;;25.88;59.43
77153;BME280;66124;51.146;17.072;2023-06-22T06:49:05;100574.86;;;25.97;59.06
77153;BME280;66124;51.146;17.072;2023-06-22T06:51:34;100582.05;;;25.94;58.90
77153;BME280;66124;51.146;17.072;2023-06-22T06:54:04;100579.56;;;25.94;58.90
77153;BME280;66124;51.146;17.072;2023-06-22T06:56:34;100578.16;;;25.97;58.70
77153;BME280;66124;51.146;17.072;2023-06-22T06:59:04;100581.18;;;26.05;58.43
77153;BME280;66124;51.146;17.072;2023-06-22T07:01:33;100584.77;;;26.10;58.22
77153;BME280;66124;51.146;17.072;2023-06-22T07:04:03;100587.20;;;26.15;58.35
77153;BME280;66124;51.146;17.072;2023-06-22T07:06:32;100587.07;;;26.22;58.23
77153;BME280;66124;51.146;17.072;2023-06-22T07:09:02;100590.68;;;26.32;57.94
77153;BME280;66124;51.146;17.072;2023-06-22T07:11:31;100592.53;;;26.47;57.83
77153;BME280;66124;51.146;17.072;2023-06-22T07:14:01;100595.33;;;26.59;57.71
77153;BME280;66124;51.146;17.072;2023-06-22T07:16:30;100598.44;;;26.62;57.58
77153;BME280;66124;51.146;17.072;2023-06-22T07:19:00;100605.30;;;26.64;57.37
77153;BME280;66124;51.146;17.072;2023-06-22T07:21:29;100607.08;;;26.68;57.29
77153;BME280;66124;51.146;17.072;2023-06-22T07:23:59;100606.32;;;26.74;57.11
77153;BME280;66124;51.146;17.072;2023-06-22T07:26:29;100606.88;;;26.86;56.53
77153;BME280;66124;51.146;17.072;2023-06-22T07:28:58;100605.14;;;27.00;56.18
77153;BME280;66124;51.146;17.072;2023-06-22T07:31:28;100609.86;;;27.18;55.97
77153;BME280;66124;51.146;17.072;2023-06-22T07:33:57;100615.73;;;27.37;55.74
77153;BME280;66124;51.146;17.072;2023-06-22T07:36:26;100609.64;;;27.49;55.28
77153;BME280;66124;51.146;17.072;2023-06-22T07:38:56;100606.34;;;27.56;55.11
77153;BME280;66124;51.146;17.072;2023-06-22T07:41:26;100603.71;;;27.60;54.83
77153;BME280;66124;51.146;17.072;2023-06-22T07:43:55;100600.05;;;27.64;54.66
77153;BME280;66124;51.146;17.072;2023-06-22T07:46:25;100599.43;;;27.66;54.49
77153;BME280;66124;51.146;17.072;2023-06-22T07:48:54;100599.64;;;27.69;54.27
77153;BME280;66124;51.146;17.072;2023-06-22T07:51:24;100587.78;;;27.67;54.14
77153;BME280;66124;51.146;17.072;2023-06-22T07:53:51;100603.75;;;27.77;53.87
77153;BME280;66124;51.146;17.072;2023-06-22T07:56:20;100605.05;;;27.77;53.82
77153;BME280;66124;51.146;17.072;2023-06-22T08:03:57;100598.27;;;27.68;53.64
77153;BME280;66124;51.146;17.072;2023-06-22T08:06:28;100591.78;;;27.61;53.73
77153;BME280;66124;51.146;17.072;2023-06-22T08:08:58;100586.85;;;27.61;53.64
77153;BME280;66124;51.146;17.072;2023-06-22T08:11:28;100588.71;;;27.58;53.61
77153;BME280;66124;51.146;17.072;2023-06-22T08:13:57;100593.33;;;27.58;53.43
77153;BME280;66124;51.146;17.072;2023-06-22T08:16:27;100595.35;;;27.63;53.40
77153;BME280;66124;51.146;17.072;2023-06-22T08:18:56;100589.85;;;27.73;53.05
77153;BME280;66124;51.146;17.072;2023-06-22T08:21:26;100585.65;;;27.84;52.84
77153;BME280;66124;51.146;17.072;2023-06-22T08:23:55;100585.08;;;27.93;52.84
77153;BME280;66124;51.146;17.072;2023-06-22T08:26:24;100587.16;;;27.99;52.73
77153;BME280;66124;51.146;17.072;2023-06-22T08:28:54;100585.66;;;28.04;52.49
77153;BME280;66124;51.146;17.072;2023-06-22T08:31:24;100567.77;;;27.96;52.27
77153;BME280;66124;51.146;17.072;2023-06-22T08:33:53;100574.94;;;28.01;52.20
77153;BME280;66124;51.146;17.072;2023-06-22T08:36:22;100569.74;;;27.99;52.22
77153;BME280;66124;51.146;17.072;2023-06-22T08:38:52;100560.80;;;28.05;51.99
77153;BME280;66124;51.146;17.072;2023-06-22T08:41:21;100533.05;;;27.97;51.63
77153;BME280;66124;51.146;17.072;2023-06-22T08:43:51;100548.45;;;28.03;51.25
77153;BME280;66124;51.146;17.072;2023-06-22T08:46:20;100557.32;;;28.01;51.40
77153;BME280;66124;51.146;17.072;2023-06-22T08:48:50;100550.92;;;27.98;51.41
77153;BME280;66124;51.146;17.072;2023-06-22T08:51:20;100552.98;;;27.98;51.35
77153;BME280;66124;51.146;17.072;2023-06-22T08:53:49;100545.45;;;27.99;51.08
77153;BME280;66124;51.146;17.072;2023-06-22T08:56:19;100551.26;;;27.99;50.77
77153;BME280;66124;51.146;17.072;2023-06-22T08:58:48;100551.76;;;28.03;50.67
77153;BME280;66124;51.146;17.072;2023-06-22T09:01:18;100546.77;;;28.14;50.21
77153;BME280;66124;51.146;17.072;2023-06-22T09:03:47;100547.86;;;28.27;49.96
77153;BME280;66124;51.146;17.072;2023-06-22T09:06:17;100551.98;;;28.38;49.65
77153;BME280;66124;51.146;17.072;2023-06-22T09:08:46;100556.84;;;28.55;49.54
77153;BME280;66124;51.146;17.072;2023-06-22T09:11:16;100560.61;;;28.64;48.97
77153;BME280;66124;51.146;17.072;2023-06-22T09:13:45;100565.65;;;28.68;48.85
77153;BME280;66124;51.146;17.072;2023-06-22T09:16:13;100563.50;;;28.76;48.52
77153;BME280;66124;51.146;17.072;2023-06-22T09:21:27;100544.69;;;29.02;47.98
77153;BME280;66124;51.146;17.072;2023-06-22T09:23:57;100558.20;;;29.19;47.41
77153;BME280;66124;51.146;17.072;2023-06-22T09:26:26;100551.61;;;29.20;47.30
77153;BME280;66124;51.146;17.072;2023-06-22T09:28:55;100556.85;;;29.26;47.20
77153;BME280;66124;51.146;17.072;2023-06-22T09:31:25;100561.42;;;29.29;47.17
77153;BME280;66124;51.146;17.072;2023-06-22T09:33:55;100558.92;;;29.26;46.99
77153;BME280;66124;51.146;17.072;2023-06-22T09:36:25;100556.08;;;29.23;46.75
77153;BME280;66124;51.146;17.072;2023-06-22T09:38:54;100557.04;;;29.28;46.47
77153;BME280;66124;51.146;17.072;2023-06-22T09:41:25;100564.90;;;29.29;46.16
77153;BME280;66124;51.146;17.072;2023-06-22T09:43:54;100558.10;;;29.34;45.91
77153;BME280;66124;51.146;17.072;2023-06-22T09:46:23;100558.25;;;29.37;45.76
77153;BME280;66124;51.146;17.072;2023-06-22T09:48:53;100549.38;;;29.42;45.77
77153;BME280;66124;51.146;17.072;2023-06-22T09:51:23;100552.15;;;29.48;45.81
77153;BME280;66124;51.146;17.072;2023-06-22T09:53:53;100545.73;;;29.52;45.85
77153;BME280;66124;51.146;17.072;2023-06-22T09:56:22;100544.73;;;29.54;45.59
77153;BME280;66124;51.146;17.072;2023-06-22T09:58:52;100544.02;;;29.53;45.37
77153;BME280;66124;51.146;17.072;2023-06-22T10:01:21;100547.94;;;29.60;45.13
77153;BME280;66124;51.146;17.072;2023-06-22T10:03:52;100541.64;;;29.72;44.93
77153;BME280;66124;51.146;17.072;2023-06-22T10:06:21;100545.02;;;29.87;44.87
77153;BME280;66124;51.146;17.072;2023-06-22T10:08:52;100539.98;;;29.97;44.74
77153;BME280;66124;51.146;17.072;2023-06-22T10:11:20;100543.98;;;29.96;44.48
77153;BME280;66124;51.146;17.072;2023-06-22T10:13:50;100547.82;;;29.85;44.34
77153;BME280;66124;51.146;17.072;2023-06-22T10:16:19;100548.98;;;29.77;44.39
77153;BME280;66124;51.146;17.072;2023-06-22T10:18:49;100543.38;;;29.72;44.35
77153;BME280;66124;51.146;17.072;2023-06-22T10:21:18;100540.70;;;29.70;44.15
77153;BME280;66124;51.146;17.072;2023-06-22T10:23:48;100536.89;;;29.70;44.19
77153;BME280;66124;51.146;17.072;2023-06-22T10:26:17;100530.88;;;29.72;44.23
77153;BME280;66124;51.146;17.072;2023-06-22T10:28:47;100528.11;;;29.77;43.58
77153;BME280;66124;51.146;17.072;2023-06-22T10:31:16;100519.23;;;29.74;43.66
77153;BME280;66124;51.146;17.072;2023-06-22T10:33:44;100514.67;;;29.69;43.58
77153;BME280;66124;51.146;17.072;2023-06-22T10:41:21;100500.19;;;29.81;42.56
77153;BME280;66124;51.146;17.072;2023-06-22T10:43:51;100500.89;;;29.85;42.39
77153;BME280;66124;51.146;17.072;2023-06-22T10:46:20;100498.63;;;29.83;42.34
77153;BME280;66124;51.146;17.072;2023-06-22T10:48:50;100501.40;;;29.81;42.18
77153;BME280;66124;51.146;17.072;2023-06-22T10:51:19;100493.09;;;29.92;41.91
77153;BME280;66124;51.146;17.072;2023-06-22T10:53:50;100487.92;;;30.03;41.23
77153;BME280;66124;51.146;17.072;2023-06-22T10:56:19;100491.84;;;30.19;40.75
77153;BME280;66124;51.146;17.072;2023-06-22T10:58:49;100490.14;;;30.43;40.44
77153;BME280;66124;51.146;17.072;2023-06-22T11:01:19;100488.35;;;30.70;40.24
77153;BME280;66124;51.146;17.072;2023-06-22T11:03:49;100483.56;;;30.99;39.78
77153;BME280;66124;51.146;17.072;2023-06-22T11:06:18;100478.88;;;31.27;39.35
77153;BME280;66124;51.146;17.072;2023-06-22T11:08:48;100472.05;;;31.45;38.35
77153;BME280;66124;51.146;17.072;2023-06-22T11:11:17;100477.66;;;31.48;37.31
77153;BME280;66124;51.146;17.072;2023-06-22T11:13:47;100477.94;;;31.46;36.83
77153;BME280;66124;51.146;17.072;2023-06-22T11:16:16;100481.67;;;31.42;36.61
77153;BME280;66124;51.146;17.072;2023-06-22T11:18:46;100476.91;;;31.42;36.55
77153;BME280;66124;51.146;17.072;2023-06-22T11:21:15;100476.45;;;31.48;36.06
77153;BME280;66124;51.146;17.072;2023-06-22T11:23:45;100475.95;;;31.61;35.67
77153;BME280;66124;51.146;17.072;2023-06-22T11:26:14;100477.04;;;31.82;35.77
77153;BME280;66124;51.146;17.072;2023-06-22T11:28:43;100473.58;;;32.05;35.78
77153;BME280;66124;51.146;17.072;2023-06-22T11:31:13;100468.58;;;32.32;36.23
77153;BME280;66124;51.146;17.072;2023-06-22T11:33:42;100467.55;;;32.60;35.78
77153;BME280;66124;51.146;17.072;2023-06-22T11:36:12;100467.18;;;32.82;35.41
77153;BME280;66124;51.146;17.072;2023-06-22T11:38:41;100465.32;;;33.06;35.45
77153;BME280;66124;51.146;17.072;2023-06-22T11:41:11;100461.99;;;33.42;35.28
77153;BME280;66124;51.146;17.072;2023-06-22T11:43:40;100465.16;;;33.62;35.10
77153;BME280;66124;51.146;17.072;2023-06-22T11:46:10;100453.95;;;33.78;35.06
77153;BME280;66124;51.146;17.072;2023-06-22T11:48:39;100459.34;;;33.87;34.68
77153;BME280;66124;51.146;17.072;2023-06-22T11:51:09;100453.68;;;34.03;34.50
77153;BME280;66124;51.146;17.072;2023-06-22T11:53:38;100453.50;;;34.33;34.20
77153;BME280;66124;51.146;17.072;2023-06-22T12:01:14;100450.14;;;35.22;32.54
77153;BME280;66124;51.146;17.072;2023-06-22T12:03:44;100448.86;;;35.41;32.24
77153;BME280;66124;51.146;17.072;2023-06-22T12:06:13;100443.50;;;35.76;31.78
77153;BME280;66124;51.146;17.072;2023-06-22T12:08:42;100435.58;;;36.09;31.14
77153;BME280;66124;51.146;17.072;2023-06-22T12:11:12;100432.20;;;36.28;30.79
77153;BME280;66124;51.146;17.072;2023-06-22T12:13:43;100430.78;;;36.36;30.48
77153;BME280;66124;51.146;17.072;2023-06-22T12:16:12;100427.91;;;36.37;30.34
77153;BME280;66124;51.146;17.072;2023-06-22T12:18:41;100417.28;;;36.31;30.39
77153;BME280;66124;51.146;17.072;2023-06-22T12:21:11;100414.16;;;36.22;30.32
77153;BME280;66124;51.146;17.072;2023-06-22T12:23:40;100415.05;;;36.07;30.35
77153;BME280;66124;51.146;17.072;2023-06-22T12:26:09;100413.14;;;36.04;30.28
77153;BME280;66124;51.146;17.072;2023-06-22T12:28:39;100414.91;;;36.13;30.35
77153;BME280;66124;51.146;17.072;2023-06-22T12:31:08;100414.35;;;36.20;30.17
77153;BME280;66124;51.146;17.072;2023-06-22T12:33:37;100408.73;;;36.11;30.23
77153;BME280;66124;51.146;17.072;2023-06-22T12:36:07;100409.40;;;35.81;30.47
77153;BME280;66124;51.146;17.072;2023-06-22T12:38:37;100405.16;;;35.48;30.66
77153;BME280;66124;51.146;17.072;2023-06-22T12:41:06;100408.98;;;35.19;30.79
77153;BME280;66124;51.146;17.072;2023-06-22T12:43:35;100406.80;;;35.02;31.19
77153;BME280;66124;51.146;17.072;2023-06-22T12:46:05;100403.35;;;35.17;31.18
77153;BME280;66124;51.146;17.072;2023-06-22T12:48:34;100396.38;;;35.51;30.86
77153;BME280;66124;51.146;17.072;2023-06-22T12:51:04;100398.33;;;35.71;30.73
77153;BME280;66124;51.146;17.072;2023-06-22T12:53:33;100389.98;;;35.90;30.58
77153;BME280;66124;51.146;17.072;2023-06-22T12:56:03;100388.35;;;35.95;30.09
77153;BME280;66124;51.146;17.072;2023-06-22T12:58:32;100383.38;;;36.01;30.20
77153;BME280;66124;51.146;17.072;2023-06-22T13:01:02;100382.10;;;36.46;29.90
77153;BME280;66124;51.146;17.072;2023-06-22T13:03:31;100381.92;;;36.94;29.35
77153;BME280;66124;51.146;17.072;2023-06-22T13:06:01;100381.48;;;37.35;28.77
77153;BME280;66124;51.146;17.072;2023-06-22T13:08:30;100388.94;;;37.53;28.12
77153;BME280;66124;51.146;17.072;2023-06-22T13:11:00;100383.69;;;37.92;28.11
77153;BME280;66124;51.146;17.072;2023-06-22T13:13:29;100378.96;;;38.55;27.61
77153;BME280;66124;51.146;17.072;2023-06-22T13:19:03;100369.51;;;39.72;26.24
77153;BME280;66124;51.146;17.072;2023-06-22T13:21:33;100363.77;;;40.09;25.59
77153;BME280;66124;51.146;17.072;2023-06-22T13:24:02;100363.26;;;40.17;25.30
77153;BME280;66124;51.146;17.072;2023-06-22T13:26:31;100362.48;;;40.19;25.30
77153;BME280;66124;51.146;17.072;2023-06-22T13:29:01;100359.33;;;40.25;25.13
77153;BME280;66124;51.146;17.072;2023-06-22T13:31:31;100358.63;;;40.50;24.76
77153;BME280;66124;51.146;17.072;2023-06-22T13:34:01;100358.83;;;40.86;24.57
77153;BME280;66124;51.146;17.072;2023-06-22T13:36:30;100359.20;;;41.22;24.35
77153;BME280;66124;51.146;17.072;2023-06-22T13:39:00;100355.41;;;41.57;23.77
77153;BME280;66124;51.146;17.072;2023-06-22T13:41:29;100349.86;;;41.88;23.38